createdAt,value
2022-09-02T00:01:28.135Z,15.20
2022-09-02T00:04:05.340Z,15.14
2022-09-02T00:06:33.186Z,15.09
2022-09-02T00:09:01.337Z,14.98
2022-09-02T00:11:30.907Z,14.92
2022-09-02T00:14:00.566Z,14.83
2022-09-02T00:16:27.930Z,14.83
2022-09-02T00:18:56.407Z,14.79
2022-09-02T00:21:24.628Z,14.74
2022-09-02T00:23:52.474Z,14.73
2022-09-02T00:26:19.960Z,14.71
2022-09-02T00:28:51.097Z,14.72
2022-09-02T00:31:24.880Z,14.72
2022-09-02T00:33:53.470Z,14.75
2022-09-02T00:36:20.892Z,14.73
2022-09-02T00:38:48.227Z,14.83
2022-09-02T00:41:15.633Z,14.85
2022-09-02T00:43:47.107Z,14.80
2022-09-02T00:46:17.097Z,14.90
2022-09-02T00:49:00.717Z,14.95
2022-09-02T00:51:32.830Z,14.95
2022-09-02T00:54:00.492Z,14.94
2022-09-02T00:56:30.241Z,14.87
2022-09-02T00:58:57.943Z,14.64
2022-09-02T01:01:25.498Z,14.61
2022-09-02T01:03:53.043Z,14.37
2022-09-02T01:06:27.509Z,14.38
2022-09-02T01:09:00.495Z,14.49
2022-09-02T01:11:40.771Z,14.53
2022-09-02T01:14:07.869Z,14.46
2022-09-02T01:16:59.999Z,14.54
2022-09-02T01:19:35.824Z,14.62
2022-09-02T01:22:16.161Z,14.67
2022-09-02T01:24:43.135Z,14.77
2022-09-02T01:27:17.836Z,14.63
2022-09-02T01:29:46.313Z,14.70
2022-09-02T01:32:13.456Z,14.61
2022-09-02T01:34:40.427Z,14.66
2022-09-02T01:37:07.502Z,14.65
2022-09-02T01:39:34.573Z,14.60
2022-09-02T01:42:02.949Z,14.51
2022-09-02T01:44:29.936Z,14.41
2022-09-02T01:46:57.037Z,14.31
2022-09-02T01:49:24.472Z,14.31
2022-09-02T01:51:55.550Z,14.42
2022-09-02T01:54:23.520Z,14.38
2022-09-02T01:56:51.876Z,14.35
2022-09-02T01:59:20.863Z,14.19
2022-09-02T02:01:48.500Z,14.11
2022-09-02T02:04:18.084Z,13.93
2022-09-02T02:06:52.243Z,13.63
2022-09-02T02:09:20.746Z,13.88
2022-09-02T02:11:48.692Z,13.83
2022-09-02T02:14:16.315Z,13.79
2022-09-02T02:16:50.338Z,13.82
2022-09-02T02:19:18.234Z,13.74
2022-09-02T02:21:45.337Z,13.74
2022-09-02T02:24:12.477Z,13.70
2022-09-02T02:26:39.454Z,13.74
2022-09-02T02:29:08.765Z,13.65
2022-09-02T02:31:37.712Z,13.55
2022-09-02T02:34:05.436Z,13.66
2022-09-02T02:36:33.881Z,13.62
2022-09-02T02:39:01.614Z,13.60
2022-09-02T02:41:31.590Z,13.63
2022-09-02T02:43:59.049Z,13.53
2022-09-02T02:46:26.460Z,13.45
2022-09-02T02:48:53.633Z,13.47
2022-09-02T02:51:20.697Z,13.47
2022-09-02T02:53:49.746Z,13.41
2022-09-02T02:56:17.118Z,13.54
2022-09-02T02:58:44.233Z,13.56
2022-09-02T03:01:11.576Z,13.70
2022-09-02T03:03:38.975Z,13.62
2022-09-02T03:06:06.333Z,13.57
2022-09-02T03:08:35.234Z,13.48
2022-09-02T03:11:02.622Z,13.41
2022-09-02T03:13:32.120Z,13.37
2022-09-02T03:16:01.017Z,13.24
2022-09-02T03:18:28.084Z,13.39
2022-09-02T03:20:55.848Z,13.42
2022-09-02T03:23:23.796Z,13.23
2022-09-02T03:25:50.942Z,13.40
2022-09-02T03:28:27.425Z,13.16
2022-09-02T03:30:55.296Z,13.27
2022-09-02T03:33:24.284Z,13.22
2022-09-02T03:35:51.898Z,13.17
2022-09-02T03:38:18.961Z,13.15
2022-09-02T03:40:46.164Z,12.98
2022-09-02T03:43:13.523Z,13.29
2022-09-02T03:45:41.854Z,13.19
2022-09-02T03:48:13.652Z,13.32
2022-09-02T03:50:44.756Z,13.15
2022-09-02T03:53:19.780Z,13.13
2022-09-02T03:55:51.128Z,13.17
2022-09-02T03:58:20.243Z,13.28
2022-09-02T04:00:54.018Z,13.19
2022-09-02T04:03:23.294Z,13.28
2022-09-02T04:05:52.249Z,13.24
2022-09-02T04:08:20.343Z,13.30
2022-09-02T04:10:48.289Z,13.27
2022-09-02T04:13:15.856Z,13.23
2022-09-02T04:15:47.944Z,13.13
2022-09-02T04:19:30.716Z,13.20
2022-09-02T04:22:16.428Z,13.24
2022-09-02T04:24:43.872Z,13.21
2022-09-02T04:27:10.898Z,13.36
2022-09-02T04:29:37.845Z,13.27
2022-09-02T04:32:04.994Z,13.27
2022-09-02T04:34:32.999Z,13.20
2022-09-02T04:37:00.074Z,13.26
2022-09-02T04:39:27.095Z,13.30
2022-09-02T04:41:54.095Z,13.24
2022-09-02T04:44:21.768Z,13.20
2022-09-02T04:46:50.319Z,13.13
2022-09-02T04:49:20.313Z,13.19
2022-09-02T04:51:50.641Z,13.22
2022-09-02T04:54:17.797Z,13.25
2022-09-02T04:56:48.165Z,13.32
2022-09-02T04:59:15.481Z,13.43
2022-09-02T05:01:51.048Z,13.37
2022-09-02T05:04:23.937Z,13.44
2022-09-02T05:06:51.520Z,13.40
2022-09-02T05:09:19.868Z,13.47
2022-09-02T05:11:52.268Z,13.61
2022-09-02T05:14:24.641Z,13.76
2022-09-02T05:16:55.389Z,14.43
2022-09-02T05:19:23.761Z,15.32
2022-09-02T05:21:57.534Z,16.18
2022-09-02T05:24:29.766Z,16.15
2022-09-02T05:27:00.046Z,16.51
2022-09-02T05:29:28.666Z,16.60
2022-09-02T05:31:57.462Z,17.11
2022-09-02T05:34:25.772Z,17.76
2022-09-02T05:36:56.960Z,17.96
2022-09-02T05:39:26.004Z,18.05
2022-09-02T05:41:53.924Z,18.09
2022-09-02T05:44:20.874Z,17.99
2022-09-02T05:46:49.145Z,18.55
2022-09-02T05:49:17.786Z,18.71
2022-09-02T05:52:00.761Z,18.36
2022-09-02T05:54:36.888Z,18.70
2022-09-02T05:57:12.959Z,19.07
2022-09-02T05:59:44.992Z,19.77
2022-09-02T06:02:18.198Z,19.79
2022-09-02T06:04:49.191Z,20.36
2022-09-02T06:07:20.896Z,21.10
2022-09-02T06:09:50.298Z,21.24
2022-09-02T06:12:20.477Z,21.92
2022-09-02T06:14:49.891Z,21.92
2022-09-02T06:17:19.439Z,21.71
2022-09-02T06:19:52.730Z,21.48
2022-09-02T06:22:23.530Z,21.01
2022-09-02T06:24:52.414Z,21.64
2022-09-02T06:27:23.705Z,22.48
2022-09-02T06:29:52.964Z,22.97
2022-09-02T06:32:22.266Z,22.75
2022-09-02T06:34:53.376Z,22.86
2022-09-02T06:37:23.903Z,22.72
2022-09-02T06:39:51.121Z,22.72
2022-09-02T06:42:23.909Z,22.85
2022-09-02T06:45:26.285Z,22.76
2022-09-02T06:47:55.392Z,23.36
2022-09-02T06:50:22.575Z,23.63
2022-09-02T06:52:50.355Z,24.18
2022-09-02T06:55:18.485Z,24.24
2022-09-02T06:57:46.183Z,23.96
2022-09-02T07:00:16.646Z,22.61
2022-09-02T07:02:43.988Z,22.91
2022-09-02T07:05:11.593Z,22.90
2022-09-02T07:07:42.238Z,23.65
2022-09-02T07:10:14.484Z,23.29
2022-09-02T07:12:45.103Z,23.03
2022-09-02T07:15:15.865Z,23.38
2022-09-02T07:17:43.963Z,23.44
2022-09-02T07:20:21.141Z,22.86
2022-09-02T07:22:53.188Z,23.64
2022-09-02T07:25:21.290Z,24.14
2022-09-02T07:27:51.327Z,23.35
2022-09-02T07:30:19.210Z,22.17
2022-09-02T07:32:49.673Z,21.93
2022-09-02T07:35:19.543Z,22.47
2022-09-02T07:37:47.648Z,23.47
2022-09-02T07:40:15.437Z,24.37
2022-09-02T07:42:43.984Z,24.20
2022-09-02T07:45:12.537Z,23.86
2022-09-02T07:47:41.621Z,23.83
2022-09-02T07:50:21.467Z,22.71
2022-09-02T07:52:57.722Z,22.20
2022-09-02T07:55:26.907Z,22.85
2022-09-02T07:57:55.580Z,23.08
2022-09-02T08:00:27.356Z,22.50
2022-09-02T08:02:57.668Z,22.33
2022-09-02T08:05:31.481Z,22.66
2022-09-02T08:07:59.019Z,22.81
2022-09-02T08:10:29.422Z,23.10
2022-09-02T08:13:00.705Z,23.62
2022-09-02T08:15:30.397Z,23.07
2022-09-02T08:17:58.778Z,22.82
2022-09-02T08:20:26.676Z,23.01
2022-09-02T08:23:05.041Z,23.04
2022-09-02T08:25:40.815Z,22.31
2022-09-02T08:28:08.115Z,22.38
2022-09-02T08:30:35.424Z,22.81
2022-09-02T08:33:02.464Z,22.54
2022-09-02T08:35:29.409Z,23.15
2022-09-02T08:38:02.145Z,23.65
2022-09-02T08:40:40.793Z,23.66
2022-09-02T08:43:29.312Z,23.90
2022-09-02T08:46:00.808Z,24.03
2022-09-02T08:48:56.067Z,23.38
2022-09-02T08:51:51.020Z,23.61
2022-09-02T08:54:42.550Z,23.44
2022-09-02T08:57:10.428Z,23.55
2022-09-02T08:59:38.389Z,23.51
2022-09-02T09:02:46.707Z,23.63
2022-09-02T09:05:30.148Z,23.19
2022-09-02T09:08:18.050Z,23.78
2022-09-02T09:11:22.064Z,23.47
2022-09-02T09:14:42.529Z,23.60
2022-09-02T09:17:23.591Z,23.98
2022-09-02T09:19:55.591Z,23.93
2022-09-02T09:22:30.541Z,23.41
2022-09-02T09:24:58.515Z,24.26
2022-09-02T09:27:25.969Z,23.97
2022-09-02T09:29:53.377Z,24.61
2022-09-02T09:32:33.423Z,25.17
2022-09-02T09:35:07.496Z,24.82
2022-09-02T09:37:50.167Z,24.89
2022-09-02T09:40:22.063Z,25.08
2022-09-02T09:43:15.452Z,24.77
2022-09-02T09:45:51.229Z,25.14
2022-09-02T09:48:29.836Z,25.39
2022-09-02T09:50:57.185Z,25.25
2022-09-02T09:53:29.226Z,24.17
2022-09-02T09:56:05.247Z,25.04
2022-09-02T09:58:41.754Z,24.83
2022-09-02T10:01:31.527Z,24.84
2022-09-02T10:04:42.247Z,24.24
2022-09-02T10:06:58.889Z,24.88
2022-09-02T10:09:37.377Z,24.58
2022-09-02T10:12:05.924Z,24.73
2022-09-02T10:14:43.661Z,25.02
2022-09-02T10:17:35.824Z,25.36
2022-09-02T10:20:44.597Z,24.70
2022-09-02T10:23:34.293Z,24.06
2022-09-02T10:29:24.346Z,24.66
2022-09-02T10:32:09.750Z,24.63
2022-09-02T10:35:04.149Z,24.54
2022-09-02T10:38:05.773Z,25.43
2022-09-02T10:40:44.085Z,25.66
2022-09-02T10:43:28.533Z,24.47
2022-09-02T10:45:59.989Z,25.86
2022-09-02T10:48:49.811Z,24.81
2022-09-02T10:51:44.857Z,25.68
2022-09-02T10:54:24.104Z,25.91
2022-09-02T10:57:05.289Z,25.30
2022-09-02T10:59:40.109Z,25.59
2022-09-02T11:02:14.938Z,25.70
2022-09-02T11:04:54.773Z,25.47
2022-09-02T11:07:30.282Z,26.01
2022-09-02T11:10:03.794Z,25.09
2022-09-02T11:12:48.416Z,25.77
2022-09-02T11:15:39.494Z,25.28
2022-09-02T11:18:15.112Z,25.09
2022-09-02T11:21:02.015Z,25.70
2022-09-02T11:23:42.231Z,25.28
2022-09-02T11:26:24.121Z,25.20
2022-09-02T11:29:12.845Z,26.42
2022-09-02T11:31:44.405Z,26.66
2022-09-02T11:34:14.879Z,26.24
2022-09-02T11:36:42.439Z,26.05
2022-09-02T11:39:51.547Z,26.91
2022-09-02T11:42:46.912Z,27.84
2022-09-02T11:45:33.653Z,25.92
2022-09-02T11:48:12.523Z,26.00
2022-09-02T11:50:58.081Z,24.88
2022-09-02T11:53:28.535Z,25.27
2022-09-02T11:56:35.256Z,25.93
2022-09-02T11:59:03.556Z,25.72
2022-09-02T12:02:01.250Z,25.85
2022-09-02T12:07:15.894Z,26.59
2022-09-02T12:09:48.160Z,24.94
2022-09-02T12:12:37.310Z,25.52
2022-09-02T12:15:08.116Z,25.27
2022-09-02T12:17:46.239Z,26.35
2022-09-02T12:20:36.576Z,25.01
2022-09-02T12:23:04.357Z,25.89
2022-09-02T12:25:33.987Z,27.32
2022-09-02T12:28:21.745Z,26.68
2022-09-02T12:31:07.557Z,26.21
2022-09-02T12:33:35.938Z,27.29
2022-09-02T12:36:04.978Z,28.06
2022-09-02T12:38:34.206Z,27.14
2022-09-02T12:41:22.473Z,25.98
2022-09-02T12:44:05.543Z,25.64
2022-09-02T12:46:43.982Z,26.35
2022-09-02T12:49:29.258Z,26.34
2022-09-02T12:52:06.890Z,26.37
2022-09-02T12:54:39.598Z,25.90
2022-09-02T12:57:08.531Z,25.63
2022-09-02T12:59:41.718Z,25.45
2022-09-02T13:02:09.049Z,26.05
2022-09-02T13:05:02.961Z,25.57
2022-09-02T13:08:02.758Z,25.02
2022-09-02T13:11:17.126Z,25.36
2022-09-02T13:13:55.910Z,25.32
2022-09-02T13:16:44.036Z,25.86
2022-09-02T13:19:38.231Z,24.67
2022-09-02T13:22:08.504Z,24.47
2022-09-02T13:24:59.380Z,24.49
2022-09-02T13:28:03.999Z,24.64
2022-09-02T13:31:02.944Z,24.33
2022-09-02T13:33:30.378Z,23.69
2022-09-02T13:35:59.443Z,23.94
2022-09-02T13:38:29.518Z,23.90
2022-09-02T13:40:56.953Z,23.75
2022-09-02T13:43:26.986Z,23.96
2022-09-02T13:45:59.621Z,24.18
2022-09-02T13:48:32.108Z,23.95
2022-09-02T13:51:12.049Z,23.77
2022-09-02T13:54:22.084Z,23.79
2022-09-02T13:56:46.828Z,23.63
2022-09-02T13:59:14.174Z,23.73
2022-09-02T14:01:41.583Z,23.84
2022-09-02T14:04:14.863Z,23.85
2022-09-02T14:06:45.705Z,23.79
2022-09-02T14:09:22.992Z,23.68
2022-09-02T14:11:50.689Z,23.52
2022-09-02T14:14:22.534Z,23.27
2022-09-02T14:16:49.940Z,23.58
2022-09-02T14:19:17.235Z,23.61
2022-09-02T14:21:53.040Z,23.44
2022-09-02T14:24:29.076Z,23.70
2022-09-02T14:26:58.301Z,23.64
2022-09-02T14:29:26.675Z,23.61
2022-09-02T14:32:07.069Z,23.64
2022-09-02T14:34:43.910Z,23.60
2022-09-02T14:37:26.155Z,23.53
2022-09-02T14:40:12.134Z,23.72
2022-09-02T14:42:47.358Z,23.64
2022-09-02T14:45:15.095Z,23.68
2022-09-02T14:47:42.708Z,23.76
2022-09-02T14:50:15.271Z,23.63
2022-09-02T14:52:48.099Z,23.71
2022-09-02T14:55:45.150Z,23.70
2022-09-02T14:58:12.587Z,23.56
2022-09-02T15:00:40.243Z,23.43
2022-09-02T15:03:07.738Z,23.45
2022-09-02T15:05:35.142Z,23.52
2022-09-02T15:08:02.769Z,23.35
2022-09-02T15:10:30.229Z,23.45
2022-09-02T15:12:58.108Z,23.52
2022-09-02T15:15:27.129Z,23.48
2022-09-02T15:17:55.669Z,23.51
2022-09-02T15:20:24.500Z,23.47
2022-09-02T15:22:53.176Z,23.70
2022-09-02T15:25:21.233Z,23.47
2022-09-02T15:27:48.706Z,23.70
2022-09-02T15:30:16.242Z,23.57
2022-09-02T15:32:44.616Z,23.62
2022-09-02T15:35:12.405Z,23.63
2022-09-02T15:37:39.842Z,23.64
2022-09-02T15:40:08.859Z,23.63
2022-09-02T15:42:37.029Z,23.53
2022-09-02T15:45:08.572Z,23.58
2022-09-02T15:47:36.710Z,23.66
2022-09-02T15:50:08.137Z,23.56
2022-09-02T15:52:36.126Z,23.55
2022-09-02T15:55:03.561Z,23.59
2022-09-02T15:57:30.945Z,23.49
2022-09-02T15:59:58.413Z,23.49
2022-09-02T16:02:25.857Z,23.29
2022-09-02T16:04:53.197Z,23.36
2022-09-02T16:07:21.343Z,23.17
2022-09-02T16:09:48.684Z,23.26
2022-09-02T16:12:16.227Z,23.35
2022-09-02T16:14:43.864Z,23.06
2022-09-02T16:17:11.240Z,22.98
2022-09-02T16:19:38.621Z,22.96
2022-09-02T16:22:06.134Z,22.95
2022-09-02T16:24:33.484Z,22.91
2022-09-02T16:27:00.878Z,22.80
2022-09-02T16:29:29.802Z,22.76
2022-09-02T16:32:14.511Z,22.64
2022-09-02T16:34:46.692Z,22.58
2022-09-02T16:37:14.406Z,22.50
2022-09-02T16:39:42.136Z,22.50
2022-09-02T16:42:09.146Z,22.41
2022-09-02T16:44:36.115Z,22.43
2022-09-02T16:47:03.503Z,22.40
2022-09-02T16:49:31.939Z,22.34
2022-09-02T16:51:59.529Z,22.33
2022-09-02T16:54:31.637Z,22.31
2022-09-02T16:57:00.365Z,22.26
2022-09-02T16:59:27.802Z,22.13
2022-09-02T17:01:55.385Z,22.18
2022-09-02T17:04:22.888Z,22.10
2022-09-02T17:06:50.342Z,22.05
2022-09-02T17:09:17.685Z,21.86
2022-09-02T17:11:45.110Z,21.77
2022-09-02T17:14:15.239Z,21.74
2022-09-02T17:16:46.113Z,21.71
2022-09-02T17:19:21.332Z,21.58
2022-09-02T17:21:53.901Z,21.49
2022-09-02T17:24:23.666Z,21.55
2022-09-02T17:26:52.492Z,21.58
2022-09-02T17:29:47.405Z,21.45
2022-09-02T17:32:09.532Z,21.46
2022-09-02T17:34:37.633Z,21.39
2022-09-02T17:37:05.409Z,21.20
2022-09-02T17:39:34.260Z,21.12
2022-09-02T17:42:02.955Z,21.00
2022-09-02T17:44:36.425Z,20.94
2022-09-02T17:47:06.440Z,20.88
2022-09-02T17:49:36.527Z,20.70
2022-09-02T17:52:06.786Z,20.55
2022-09-02T17:54:38.324Z,20.36
2022-09-02T17:57:29.680Z,20.28
2022-09-02T18:00:23.367Z,20.13
2022-09-02T18:03:37.762Z,20.11
2022-09-02T18:06:21.953Z,19.95
2022-09-02T18:08:55.500Z,19.79
2022-09-02T18:11:22.844Z,19.70
2022-09-02T18:14:15.647Z,19.51
2022-09-02T18:17:04.309Z,19.46
2022-09-02T18:20:09.427Z,19.24
2022-09-02T18:23:03.240Z,19.12
2022-09-02T18:25:50.699Z,19.00
2022-09-02T18:28:51.616Z,18.96
2022-09-02T18:31:27.936Z,18.91
2022-09-02T18:34:11.774Z,18.86
2022-09-02T18:36:57.731Z,18.87
2022-09-02T18:39:52.856Z,18.91
2022-09-02T18:42:37.424Z,18.89
2022-09-02T18:45:04.844Z,18.84
2022-09-02T18:47:54.756Z,18.80
2022-09-02T18:53:24.651Z,18.76
2022-09-02T18:55:52.722Z,18.69
2022-09-02T18:58:46.105Z,18.74
2022-09-02T19:01:30.018Z,18.79
2022-09-02T19:04:00.904Z,18.81
2022-09-02T19:06:36.064Z,18.92
2022-09-02T19:09:13.762Z,18.96
2022-09-02T19:11:41.312Z,18.97
2022-09-02T19:14:21.072Z,18.92
2022-09-02T19:16:48.547Z,18.99
2022-09-02T19:19:17.201Z,18.91
2022-09-02T19:22:18.042Z,18.93
2022-09-02T19:24:50.687Z,18.84
2022-09-02T19:27:22.526Z,18.84
2022-09-02T19:29:56.811Z,18.79
2022-09-02T19:32:28.363Z,18.75
2022-09-02T19:34:56.266Z,18.75
2022-09-02T19:37:23.680Z,18.70
2022-09-02T19:39:54.058Z,18.69
2022-09-02T19:42:24.234Z,18.64
2022-09-02T19:44:52.117Z,18.58
2022-09-02T19:50:08.277Z,18.54
2022-09-02T19:52:41.057Z,18.50
2022-09-02T19:55:09.443Z,18.42
2022-09-02T19:57:37.194Z,18.45
2022-09-02T20:00:05.835Z,18.48
2022-09-02T20:02:34.459Z,18.48
2022-09-02T20:05:02.014Z,18.52
2022-09-02T20:07:29.425Z,18.56
2022-09-02T20:09:56.793Z,18.54
2022-09-02T20:12:24.526Z,18.63
2022-09-02T20:14:52.163Z,18.63
2022-09-02T20:17:21.686Z,18.60
2022-09-02T20:19:49.856Z,18.52
2022-09-02T20:22:19.233Z,18.55
2022-09-02T20:24:46.594Z,18.58
2022-09-02T20:27:29.090Z,18.59
2022-09-02T20:30:05.733Z,18.55
2022-09-02T20:32:45.158Z,18.55
2022-09-02T20:35:50.426Z,18.53
2022-09-02T20:38:41.582Z,18.56
2022-09-02T20:41:41.293Z,18.54
2022-09-02T20:44:23.930Z,18.45
2022-09-02T20:47:06.579Z,18.51
2022-09-02T20:49:47.893Z,18.50
2022-09-02T20:52:33.280Z,18.46
2022-09-02T20:55:51.880Z,18.40
2022-09-02T20:59:01.033Z,18.39
2022-09-02T21:01:31.830Z,18.38
2022-09-02T21:04:14.509Z,18.40
2022-09-02T21:06:45.776Z,18.30
2022-09-02T21:09:30.135Z,18.36
2022-09-02T21:12:24.702Z,18.36
2022-09-02T21:15:08.020Z,18.35
2022-09-02T21:17:51.940Z,18.34
2022-09-02T21:20:58.678Z,18.36
2022-09-02T21:23:32.388Z,18.28
2022-09-02T21:26:10.762Z,18.24
2022-09-02T21:29:23.709Z,18.24
2022-09-02T21:32:27.443Z,18.31
2022-09-02T21:35:08.882Z,18.38
2022-09-02T21:37:39.665Z,18.37
2022-09-02T21:40:41.525Z,18.33
2022-09-02T21:43:30.346Z,18.30
2022-09-02T21:46:05.453Z,18.31
2022-09-02T21:48:38.560Z,18.29
2022-09-02T21:51:44.946Z,18.26
2022-09-02T21:54:36.135Z,18.17
2022-09-02T21:57:32.743Z,18.11
2022-09-02T22:00:06.109Z,18.05
2022-09-02T22:02:57.958Z,17.99
2022-09-02T22:05:32.319Z,17.94
2022-09-02T22:08:14.077Z,18.00
2022-09-02T22:10:44.405Z,17.85
2022-09-02T22:13:12.093Z,17.81
2022-09-02T22:15:39.440Z,17.79
2022-09-02T22:18:24.678Z,17.75
2022-09-02T22:21:01.388Z,17.71
2022-09-02T22:23:30.864Z,17.76
2022-09-02T22:26:08.293Z,17.76
2022-09-02T22:28:39.489Z,17.71
2022-09-02T22:31:11.187Z,17.71
2022-09-02T22:33:49.004Z,17.69
2022-09-02T22:36:30.445Z,17.66
2022-09-02T22:39:01.225Z,17.65
2022-09-02T22:41:34.398Z,17.60
2022-09-02T22:44:11.183Z,17.57
2022-09-02T22:47:06.840Z,17.49
2022-09-02T22:49:56.525Z,17.50
2022-09-02T22:52:55.048Z,17.57
2022-09-02T22:55:46.446Z,17.54
2022-09-02T22:58:31.379Z,17.46
2022-09-02T23:01:22.660Z,17.44
2022-09-02T23:04:01.969Z,17.37
2022-09-02T23:06:33.129Z,17.36
2022-09-02T23:09:08.883Z,17.35
2022-09-02T23:11:51.285Z,17.31
2022-09-02T23:15:08.817Z,17.25
2022-09-02T23:18:22.592Z,17.35
2022-09-02T23:20:59.558Z,17.31
2022-09-02T23:23:49.305Z,17.28
2022-09-02T23:26:25.901Z,17.25
2022-09-02T23:29:16.488Z,17.31
2022-09-02T23:32:04.834Z,17.29
2022-09-02T23:34:58.450Z,17.26
2022-09-02T23:37:50.106Z,17.22
2022-09-02T23:40:30.842Z,17.09
2022-09-02T23:42:59.404Z,17.29
2022-09-02T23:45:29.620Z,17.33
2022-09-02T23:48:12.649Z,17.29
2022-09-02T23:51:16.900Z,17.20
2022-09-02T23:53:59.276Z,17.12
2022-09-02T23:56:46.418Z,17.08
2022-09-02T23:59:28.867Z,17.13
